Time;durP1;ratioP1;P1;durP2;ratioP2;P2;SDS_P1;SDS_P2;PMS_P1;PMS_P2;Temp;Humidity;BMP_temperature;BMP_pressure;BME280_temperature;BME280_humidity;BME280_pressure;Samples;Min_cycle;Max_cycle;Signal;HPM_P1;HPM_P2
2021/07/22 00:00:09;;;;;;;24.75;17.77;;;21.30;96.40;;;;;;5012471;28;20026;-78
2021/07/22 00:02:35;;;;;;;25.35;17.35;;;21.30;96.50;;;;;;5014123;28;20052;-78
2021/07/22 00:05:02;;;;;;;30.05;17.70;;;21.20;96.60;;;;;;5014259;28;20100;-78
2021/07/22 00:07:29;;;;;;;28.92;16.75;;;21.20;96.80;;;;;;5013949;28;20040;-78
2021/07/22 00:09:54;;;;;;;28.70;18.17;;;21.20;96.80;;;;;;5013393;28;20088;-78
2021/07/22 00:12:20;;;;;;;28.38;17.80;;;21.20;96.90;;;;;;5013478;28;20038;-78
2021/07/22 00:14:45;;;;;;;29.00;18.10;;;21.10;97.00;;;;;;5011961;28;20452;-78
2021/07/22 00:17:11;;;;;;;24.08;17.02;;;21.10;96.90;;;;;;5013027;28;20101;-78
2021/07/22 00:19:38;;;;;;;24.80;17.58;;;21.00;97.20;;;;;;5013841;28;20026;-78
2021/07/22 00:22:04;;;;;;;29.15;18.42;;;21.00;97.20;;;;;;5000908;28;20026;-78
2021/07/22 00:24:30;;;;;;;30.13;18.23;;;21.00;97.20;;;;;;4994696;28;20092;-78
2021/07/22 00:26:56;;;;;;;26.70;18.23;;;21.00;97.20;;;;;;4994101;28;20470;-78
2021/07/22 00:29:22;;;;;;;30.77;17.35;;;20.90;97.30;;;;;;4993482;28;20404;-78
2021/07/22 00:31:48;;;;;;;33.10;18.35;;;20.90;97.30;;;;;;4992420;28;20560;-77
2021/07/22 00:34:14;;;;;;;32.05;18.40;;;20.90;97.40;;;;;;5005430;28;20109;-78
2021/07/22 00:36:40;;;;;;;28.33;17.58;;;20.80;97.40;;;;;;5011988;28;20125;-78
2021/07/22 00:39:05;;;;;;;25.83;17.58;;;20.80;97.50;;;;;;5012193;28;20133;-78
2021/07/22 00:41:37;;;;;;;32.80;18.13;;;20.80;97.50;;;;;;5013290;28;20026;-78
2021/07/22 00:44:03;;;;;;;32.17;17.60;;;20.80;97.50;;;;;;5012758;28;20100;-78
2021/07/22 00:46:28;;;;;;;26.42;18.27;;;20.80;97.50;;;;;;5011558;28;20033;-78
2021/07/22 00:48:54;;;;;;;26.13;17.42;;;20.70;97.60;;;;;;5013239;28;20029;-78
2021/07/22 00:51:20;;;;;;;30.92;17.45;;;20.70;97.70;;;;;;5011926;28;20505;-78
2021/07/22 00:53:45;;;;;;;26.95;17.90;;;20.70;97.60;;;;;;5013421;28;20022;-78
2021/07/22 00:56:11;;;;;;;28.88;18.02;;;20.70;97.70;;;;;;5012914;28;20034;-78
2021/07/22 00:58:36;;;;;;;31.00;17.73;;;20.70;97.80;;;;;;5013591;28;20026;-78
2021/07/22 01:01:02;;;;;;;25.85;18.13;;;20.60;97.90;;;;;;5011715;28;20030;-78
2021/07/22 01:03:28;;;;;;;28.27;17.92;;;20.50;97.90;;;;;;5012877;28;20029;-78
2021/07/22 01:05:53;;;;;;;27.45;18.13;;;20.50;98.00;;;;;;5012672;28;20430;-78
2021/07/22 01:08:19;;;;;;;27.45;18.48;;;20.50;98.20;;;;;;5012809;28;20101;-78
2021/07/22 01:10:44;;;;;;;25.55;17.60;;;20.40;98.20;;;;;;5011020;28;20108;-78
2021/07/22 01:13:10;;;;;;;24.92;18.05;;;20.40;98.40;;;;;;5010675;28;20508;-78
2021/07/22 01:15:36;;;;;;;26.52;18.33;;;20.30;98.40;;;;;;5012396;28;20026;-78
2021/07/22 01:18:01;;;;;;;40.90;20.00;;;20.30;98.40;;;;;;5011129;28;20037;-78
2021/07/22 01:20:28;;;;;;;26.27;17.98;;;20.30;98.50;;;;;;5012849;28;20491;-78
2021/07/22 01:22:55;;;;;;;26.80;18.73;;;20.30;98.40;;;;;;5012252;28;20034;-78
2021/07/22 01:25:22;;;;;;;27.95;18.38;;;20.30;98.40;;;;;;5010942;28;20026;-78
2021/07/22 01:27:49;;;;;;;31.70;17.52;;;20.30;98.40;;;;;;5012628;28;20492;-78
2021/07/22 01:30:15;;;;;;;27.55;18.92;;;20.30;98.40;;;;;;5012559;28;20404;-78
2021/07/22 01:32:42;;;;;;;34.70;18.95;;;20.20;98.50;;;;;;5012368;28;20109;-78
2021/07/22 01:35:09;;;;;;;33.53;18.38;;;20.20;98.50;;;;;;5012115;28;20037;-78
2021/07/22 01:37:37;;;;;;;26.05;17.42;;;20.20;98.50;;;;;;5011872;28;20101;-78
2021/07/22 01:40:03;;;;;;;27.38;19.17;;;20.20;98.40;;;;;;5009752;28;20030;-78
2021/07/22 01:42:31;;;;;;;28.17;18.58;;;20.20;98.50;;;;;;5011978;28;20056;-78
2021/07/22 01:44:56;;;;;;;30.25;18.88;;;20.20;98.40;;;;;;4992673;28;20041;-78
2021/07/22 01:47:22;;;;;;;28.85;18.20;;;20.20;98.40;;;;;;4990837;28;20493;-78
2021/07/22 01:49:47;;;;;;;29.70;19.23;;;20.20;98.50;;;;;;4992409;28;20025;-78
2021/07/22 01:52:13;;;;;;;26.77;19.38;;;20.20;98.40;;;;;;4992241;28;20069;-78
2021/07/22 01:54:39;;;;;;;26.92;18.38;;;20.20;98.30;;;;;;4992425;28;20402;-78
2021/07/22 01:57:05;;;;;;;28.45;18.35;;;20.20;98.40;;;;;;4992422;28;20034;-78
2021/07/22 01:59:36;;;;;;;28.27;18.05;;;20.20;98.40;;;;;;4993755;28;20022;-77
2021/07/22 02:02:06;;;;;;;26.17;18.65;;;20.10;98.50;;;;;;5006862;28;20110;-78
2021/07/22 02:04:34;;;;;;;27.02;17.58;;;20.10;98.40;;;;;;4992154;28;20037;-78
2021/07/22 02:07:00;;;;;;;27.95;17.77;;;20.00;98.60;;;;;;4992362;28;20045;-78
2021/07/22 02:09:26;;;;;;;32.47;19.13;;;20.00;98.80;;;;;;5007293;28;20053;-78
2021/07/22 02:11:53;;;;;;;36.70;19.25;;;19.90;98.70;;;;;;4992017;28;20041;-78
2021/07/22 02:14:19;;;;;;;30.70;18.77;;;19.80;98.80;;;;;;4991321;28;20022;-78
2021/07/22 02:16:45;;;;;;;34.55;18.58;;;19.80;99.00;;;;;;4991298;28;20448;-78
2021/07/22 02:19:11;;;;;;;29.05;18.10;;;19.70;99.10;;;;;;4991962;28;20413;-78
2021/07/22 02:21:38;;;;;;;27.08;17.90;;;19.70;99.30;;;;;;4991633;28;20545;-78
2021/07/22 02:24:07;;;;;;;28.38;18.02;;;19.60;99.30;;;;;;4991742;28;20019;-78
2021/07/22 02:26:33;;;;;;;29.17;18.65;;;19.60;99.50;;;;;;4992219;28;20113;-78
2021/07/22 02:29:00;;;;;;;26.52;18.73;;;19.50;99.40;;;;;;4991748;28;20134;-78
2021/07/22 02:31:25;;;;;;;25.48;17.48;;;19.50;99.60;;;;;;4991862;28;20045;-78
2021/07/22 02:33:51;;;;;;;25.02;17.67;;;19.50;99.70;;;;;;5000123;28;20025;-78
2021/07/22 02:36:17;;;;;;;29.75;18.55;;;19.50;99.70;;;;;;5026609;28;20052;-78
2021/07/22 02:38:42;;;;;;;29.33;19.13;;;19.40;99.70;;;;;;5011210;28;20037;-78
2021/07/22 02:41:08;;;;;;;27.77;17.85;;;19.40;99.80;;;;;;5007956;28;20048;-78
2021/07/22 02:43:34;;;;;;;33.13;18.48;;;19.40;99.90;;;;;;5011080;28;20077;-78
2021/07/22 02:46:10;;;;;;;26.63;18.02;;;19.30;99.90;;;;;;5009067;28;20088;-78
2021/07/22 02:48:36;;;;;;;28.38;18.15;;;19.30;99.90;;;;;;5011187;28;20611;-78
2021/07/22 02:51:07;;;;;;;25.58;18.42;;;19.30;99.90;;;;;;5010596;28;20112;-78
2021/07/22 02:53:35;;;;;;;26.17;17.70;;;19.20;99.90;;;;;;5011477;28;20030;-78
2021/07/22 02:56:03;;;;;;;28.48;18.60;;;19.20;99.90;;;;;;5011121;28;20029;-78
2021/07/22 02:58:29;;;;;;;31.52;18.75;;;19.20;99.90;;;;;;5010863;28;20030;-78
2021/07/22 03:00:56;;;;;;;31.05;18.60;;;19.20;99.90;;;;;;4992993;28;20109;-78
2021/07/22 03:03:23;;;;;;;28.23;18.50;;;19.10;99.90;;;;;;4991130;28;20037;-78
2021/07/22 03:05:49;;;;;;;24.48;17.17;;;19.10;99.90;;;;;;4991356;28;20029;-78
2021/07/22 03:08:14;;;;;;;30.80;19.23;;;19.10;99.90;;;;;;4991621;28;20030;-78
2021/07/22 03:10:43;;;;;;;31.00;18.85;;;19.00;99.90;;;;;;4991243;28;20030;-78
2021/07/22 03:13:09;;;;;;;28.55;18.50;;;19.00;99.90;;;;;;4991363;28;20112;-78
2021/07/22 03:15:35;;;;;;;27.70;17.83;;;19.00;99.90;;;;;;4990720;28;20387;-78
2021/07/22 03:18:00;;;;;;;27.63;18.08;;;18.90;99.90;;;;;;4990986;28;20023;-78
2021/07/22 03:20:26;;;;;;;26.55;18.75;;;19.00;99.90;;;;;;4990703;28;20050;-78
2021/07/22 03:22:53;;;;;;;30.13;18.55;;;18.90;99.90;;;;;;4990087;28;20034;-78
2021/07/22 03:25:18;;;;;;;29.70;18.52;;;19.00;99.90;;;;;;4992452;28;20022;-78
2021/07/22 03:27:44;;;;;;;32.55;19.20;;;18.90;99.90;;;;;;4995123;28;20105;-78
2021/07/22 03:30:10;;;;;;;28.75;18.90;;;18.90;99.90;;;;;;5010140;28;20034;-78
2021/07/22 03:32:36;;;;;;;28.77;19.08;;;18.90;99.90;;;;;;4993005;28;20478;-78
2021/07/22 03:35:02;;;;;;;31.33;19.17;;;18.90;99.90;;;;;;5012887;28;20040;-78
2021/07/22 03:37:28;;;;;;;27.08;18.23;;;18.80;99.90;;;;;;5014608;28;20041;-78
2021/07/22 03:39:53;;;;;;;34.28;17.75;;;18.80;99.90;;;;;;5013440;28;20092;-78
2021/07/22 03:42:21;;;;;;;25.70;18.70;;;18.70;99.90;;;;;;5014113;28;20100;-78
2021/07/22 03:44:46;;;;;;;27.75;18.95;;;18.70;99.90;;;;;;5014247;28;20064;-78
2021/07/22 03:47:12;;;;;;;32.53;19.08;;;18.70;99.90;;;;;;5013613;28;20029;-78
2021/07/22 03:49:38;;;;;;;29.13;18.00;;;18.70;99.90;;;;;;5013050;28;20025;-78
2021/07/22 03:52:04;;;;;;;26.58;18.15;;;18.60;99.90;;;;;;5014415;28;20026;-78
2021/07/22 03:54:30;;;;;;;29.02;19.30;;;18.60;99.90;;;;;;5014494;28;20389;-78
2021/07/22 03:56:56;;;;;;;28.17;18.88;;;18.50;99.90;;;;;;5014273;28;20076;-78
2021/07/22 03:59:21;;;;;;;30.45;19.25;;;18.50;99.90;;;;;;5008944;28;20034;-78
2021/07/22 04:01:47;;;;;;;32.78;20.08;;;18.50;99.90;;;;;;4993974;28;20503;-78
2021/07/22 04:04:13;;;;;;;29.35;18.13;;;18.40;99.90;;;;;;4993979;28;20538;-78
2021/07/22 04:06:42;;;;;;;31.10;18.50;;;18.40;99.90;;;;;;4994496;28;20481;-78
2021/07/22 04:09:07;;;;;;;28.80;19.20;;;18.30;99.90;;;;;;4993872;28;20034;-78
2021/07/22 04:11:35;;;;;;;32.45;19.50;;;18.30;99.90;;;;;;5007805;28;20034;-78
2021/07/22 04:14:01;;;;;;;31.45;18.83;;;18.20;99.90;;;;;;4992277;28;20026;-78
2021/07/22 04:16:26;;;;;;;30.60;18.90;;;18.20;99.90;;;;;;5008613;28;20470;-77
2021/07/22 04:18:52;;;;;;;31.85;19.55;;;18.20;99.90;;;;;;4993894;28;20026;-77
2021/07/22 04:21:18;;;;;;;30.75;19.77;;;18.10;99.90;;;;;;4993518;28;20461;-77
2021/07/22 04:23:43;;;;;;;29.88;19.33;;;18.10;99.90;;;;;;5008880;28;20462;-78
2021/07/22 04:26:16;;;;;;;28.83;18.85;;;18.10;99.90;;;;;;4993690;28;20027;-77
2021/07/22 04:28:42;;;;;;;33.40;18.88;;;18.00;99.90;;;;;;4993496;28;20486;-78
2021/07/22 04:31:08;;;;;;;27.33;18.55;;;17.90;99.90;;;;;;4993897;28;20037;-78
2021/07/22 04:33:33;;;;;;;27.95;19.08;;;17.90;99.90;;;;;;4998980;28;20021;-78
2021/07/22 04:35:59;;;;;;;27.73;18.75;;;17.90;99.90;;;;;;5011335;28;20061;-78
2021/07/22 04:38:25;;;;;;;26.80;18.35;;;17.90;99.90;;;;;;5012992;28;20168;-77
2021/07/22 04:40:51;;;;;;;29.00;18.17;;;17.90;99.90;;;;;;5011540;28;20072;-77
2021/07/22 04:43:17;;;;;;;33.80;19.40;;;17.90;99.90;;;;;;5011469;28;20136;-77
2021/07/22 04:45:42;;;;;;;29.13;18.65;;;18.00;99.90;;;;;;5013078;28;20450;-77
2021/07/22 04:48:08;;;;;;;32.70;19.25;;;18.00;99.90;;;;;;5011181;28;20026;-77
2021/07/22 04:50:33;;;;;;;30.15;18.13;;;18.00;99.90;;;;;;5005844;28;20419;-77
2021/07/22 04:53:00;;;;;;;26.73;18.42;;;18.00;99.90;;;;;;4998080;28;20034;-78
2021/07/22 04:55:25;;;;;;;34.15;18.98;;;18.00;99.90;;;;;;4991662;28;20042;-78
2021/07/22 04:58:00;;;;;;;28.52;17.88;;;18.00;99.90;;;;;;4992046;28;20027;-77
2021/07/22 05:00:27;;;;;;;36.13;17.83;;;18.00;99.90;;;;;;4994055;28;20030;-78
2021/07/22 05:02:59;;;;;;;27.13;18.15;;;18.00;99.90;;;;;;5012315;28;20109;-78
2021/07/22 05:05:26;;;;;;;29.15;17.65;;;18.00;99.90;;;;;;5011031;28;20026;-77
2021/07/22 05:07:51;;;;;;;27.05;17.95;;;18.00;99.90;;;;;;5011263;28;20400;-77
2021/07/22 05:10:17;;;;;;;30.45;17.98;;;18.00;99.90;;;;;;5012241;28;20072;-77
2021/07/22 05:12:43;;;;;;;33.92;18.70;;;18.00;99.90;;;;;;5012842;28;20057;-77
2021/07/22 05:15:09;;;;;;;30.77;18.50;;;18.10;99.90;;;;;;5011277;28;20030;-79
2021/07/22 05:17:38;;;;;;;26.70;16.80;;;18.10;99.90;;;;;;5012238;28;20124;-85
2021/07/22 05:20:05;;;;;;;29.85;17.67;;;18.20;99.90;;;;;;5010573;28;20121;-83
2021/07/22 05:22:31;;;;;;;30.05;17.48;;;18.20;99.90;;;;;;5012571;28;20113;-83
2021/07/22 05:24:57;;;;;;;27.83;16.92;;;18.30;99.90;;;;;;5012639;28;20080;-83
2021/07/22 05:27:23;;;;;;;24.90;16.67;;;18.30;99.90;;;;;;5012313;28;20022;-83
2021/07/22 05:29:48;;;;;;;31.15;16.88;;;18.40;99.90;;;;;;5012642;28;20022;-83
2021/07/22 05:32:14;;;;;;;25.35;16.80;;;18.50;99.90;;;;;;5012004;28;20160;-83
2021/07/22 05:34:40;;;;;;;27.40;17.08;;;18.60;99.90;;;;;;5001120;28;20035;-83
2021/07/22 05:37:07;;;;;;;27.20;17.85;;;18.60;99.90;;;;;;5008908;28;20037;-83
2021/07/22 05:39:34;;;;;;;29.13;17.42;;;18.70;99.90;;;;;;5012441;28;20060;-83
2021/07/22 05:42:00;;;;;;;25.60;17.13;;;18.80;99.90;;;;;;5010841;28;20081;-83
2021/07/22 05:44:27;;;;;;;30.77;17.10;;;18.80;99.90;;;;;;5003480;28;20054;-83
2021/07/22 05:46:52;;;;;;;25.27;17.42;;;18.90;99.90;;;;;;4992469;28;20043;-83
2021/07/22 05:49:18;;;;;;;25.92;17.48;;;19.00;99.90;;;;;;5005880;28;20032;-83
2021/07/22 05:51:43;;;;;;;28.65;17.40;;;19.10;99.90;;;;;;5005615;28;20042;-83
2021/07/22 05:54:12;;;;;;;27.42;17.20;;;19.20;99.90;;;;;;5011992;28;20038;-83
2021/07/22 05:56:37;;;;;;;28.00;17.27;;;19.20;99.90;;;;;;5012035;28;20092;-83
2021/07/22 05:59:03;;;;;;;25.25;16.83;;;19.30;99.90;;;;;;5010792;28;20026;-83
2021/07/22 06:01:29;;;;;;;22.90;16.27;;;19.40;99.90;;;;;;5009507;28;20033;-78
2021/07/22 06:03:55;;;;;;;31.30;17.38;;;19.50;99.90;;;;;;4996866;28;20026;-78
2021/07/22 06:06:21;;;;;;;26.55;17.27;;;19.50;99.90;;;;;;4991820;28;20034;-77
2021/07/22 06:08:46;;;;;;;28.58;16.83;;;19.60;99.90;;;;;;4991437;28;20018;-77
2021/07/22 06:11:12;;;;;;;27.70;17.83;;;19.60;99.90;;;;;;4996577;28;20049;-78
2021/07/22 06:13:38;;;;;;;26.38;16.65;;;19.70;99.90;;;;;;5010587;28;20026;-78
2021/07/22 06:16:12;;;;;;;30.15;17.73;;;19.80;99.90;;;;;;5009721;28;20040;-78
2021/07/22 06:18:39;;;;;;;26.10;15.98;;;19.90;99.90;;;;;;4991440;28;20110;-77
2021/07/22 06:21:06;;;;;;;20.55;16.35;;;20.00;99.90;;;;;;4990531;28;20034;-77
2021/07/22 06:23:31;;;;;;;26.13;16.40;;;20.20;99.90;;;;;;5006151;28;20497;-78
2021/07/22 06:26:01;;;;;;;27.85;16.67;;;20.40;99.70;;;;;;5001409;28;20050;-78
2021/07/22 06:28:27;;;;;;;27.08;16.25;;;20.50;99.20;;;;;;4991481;28;20109;-78
2021/07/22 06:30:54;;;;;;;23.83;16.00;;;20.60;99.00;;;;;;4992089;28;20156;-78
2021/07/22 06:33:20;;;;;;;23.77;15.95;;;20.80;98.90;;;;;;5010116;28;20029;-78
2021/07/22 06:35:46;;;;;;;25.65;15.70;;;20.90;98.70;;;;;;5002641;28;20113;-78
2021/07/22 06:38:13;;;;;;;22.85;15.38;;;21.00;98.60;;;;;;4992515;28;20105;-78
2021/07/22 06:40:39;;;;;;;20.27;15.20;;;21.10;98.20;;;;;;4997838;28;20141;-78
2021/07/22 06:43:07;;;;;;;27.70;16.13;;;21.30;98.10;;;;;;5003962;28;20097;-78
2021/07/22 06:45:33;;;;;;;23.20;15.48;;;21.30;97.90;;;;;;5026230;28;20395;-78
2021/07/22 06:48:01;;;;;;;25.58;15.40;;;21.50;97.50;;;;;;4992665;28;20102;-78
2021/07/22 06:50:26;;;;;;;31.25;16.50;;;21.60;97.50;;;;;;4991442;28;20026;-78
2021/07/22 06:52:52;;;;;;;24.83;16.48;;;21.80;97.20;;;;;;5008918;28;20038;-78
2021/07/22 06:55:18;;;;;;;28.33;15.93;;;21.90;97.20;;;;;;5009736;28;20416;-78
2021/07/22 06:57:43;;;;;;;29.20;15.30;;;22.00;97.00;;;;;;4989971;28;20447;-78
2021/07/22 07:00:10;;;;;;;24.67;16.13;;;22.20;96.60;;;;;;4991820;28;20140;-77
2021/07/22 07:02:35;;;;;;;26.40;15.73;;;22.30;96.20;;;;;;4994758;28;20054;-78
2021/07/22 07:05:01;;;;;;;27.88;16.23;;;22.50;95.50;;;;;;5002269;28;20062;-78
2021/07/22 07:07:26;;;;;;;23.70;15.82;;;22.60;95.10;;;;;;5012681;28;20026;-77
2021/07/22 07:09:53;;;;;;;22.77;15.45;;;22.80;94.60;;;;;;5013447;28;20109;-78
2021/07/22 07:12:19;;;;;;;21.92;15.27;;;23.00;94.70;;;;;;4999985;28;20503;-78
2021/07/22 07:14:44;;;;;;;22.55;15.90;;;23.10;94.10;;;;;;4998628;28;20049;-78
2021/07/22 07:17:10;;;;;;;26.70;15.93;;;23.30;94.00;;;;;;5011043;28;20030;-78
2021/07/22 07:19:36;;;;;;;23.45;15.60;;;23.40;93.70;;;;;;5012015;28;20057;-78
2021/07/22 07:22:01;;;;;;;29.05;17.00;;;23.60;92.90;;;;;;5008327;28;20037;-78
2021/07/22 07:24:27;;;;;;;26.45;15.52;;;23.70;92.70;;;;;;5010811;28;20512;-78
2021/07/22 07:26:53;;;;;;;25.20;14.65;;;23.90;92.40;;;;;;5010853;28;20382;-77
2021/07/22 07:29:18;;;;;;;25.67;16.52;;;24.10;91.90;;;;;;5012153;28;20030;-77
2021/07/22 07:31:44;;;;;;;26.70;15.75;;;24.20;91.70;;;;;;5010848;28;20084;-78
2021/07/22 07:34:10;;;;;;;22.90;15.70;;;24.40;91.60;;;;;;5012164;28;20036;-77
2021/07/22 07:36:41;;;;;;;28.98;16.60;;;24.60;90.90;;;;;;5008899;28;20038;-77
2021/07/22 07:39:06;;;;;;;19.42;15.70;;;24.70;91.00;;;;;;5010325;28;20465;-78
2021/07/22 07:41:32;;;;;;;31.95;15.73;;;24.90;90.60;;;;;;5001819;28;20026;-77
2021/07/22 07:43:57;;;;;;;23.75;15.43;;;25.10;89.60;;;;;;5008036;28;20057;-77
2021/07/22 07:46:23;;;;;;;23.23;15.93;;;25.80;88.90;;;;;;4992974;28;20030;-77
2021/07/22 07:48:49;;;;;;;25.42;15.95;;;27.70;84.70;;;;;;5005078;28;20030;-77
2021/07/22 07:51:15;;;;;;;20.67;15.63;;;29.60;80.50;;;;;;5010896;28;20076;-78
2021/07/22 07:53:41;;;;;;;19.73;14.85;;;30.70;75.80;;;;;;5011701;28;20121;-78
2021/07/22 07:56:06;;;;;;;21.30;15.38;;;31.40;74.60;;;;;;5011142;28;20429;-78
2021/07/22 07:58:32;;;;;;;24.00;16.20;;;31.90;71.50;;;;;;5009849;28;20042;-80
2021/07/22 08:00:58;;;;;;;21.20;15.65;;;32.30;71.00;;;;;;5010028;28;20026;-78
2021/07/22 08:03:24;;;;;;;22.02;16.30;;;32.60;68.90;;;;;;5012438;28;20402;-78
2021/07/22 08:05:53;;;;;;;25.52;15.38;;;33.10;67.60;;;;;;5010264;28;20045;-78
2021/07/22 08:08:19;;;;;;;21.08;15.68;;;33.10;67.50;;;;;;5012365;28;20026;-78
2021/07/22 08:10:45;;;;;;;21.70;15.38;;;33.00;66.50;;;;;;5010112;28;20515;-78
2021/07/22 08:13:11;;;;;;;19.55;14.77;;;33.60;66.90;;;;;;4999686;28;20061;-77
2021/07/22 08:15:40;;;;;;;20.13;14.70;;;33.90;65.50;;;;;;4993197;28;20026;-78
2021/07/22 08:18:06;;;;;;;18.35;15.48;;;34.10;64.50;;;;;;4996770;28;20121;-77
2021/07/22 08:20:32;;;;;;;21.35;14.68;;;34.30;64.60;;;;;;4992071;28;20108;-78
2021/07/22 08:22:57;;;;;;;21.02;15.57;;;34.80;64.80;;;;;;4996802;28;20058;-79
2021/07/22 08:25:23;;;;;;;18.30;15.65;;;35.10;63.20;;;;;;5013112;28;20097;-78
2021/07/22 08:27:49;;;;;;;23.73;15.98;;;35.60;63.00;;;;;;5005719;28;20029;-77
2021/07/22 08:30:15;;;;;;;23.58;15.70;;;36.00;62.10;;;;;;5011569;28;20034;-76
2021/07/22 08:32:41;;;;;;;20.90;14.70;;;36.10;61.60;;;;;;5009904;28;20029;-76
2021/07/22 08:35:08;;;;;;;19.10;13.98;;;36.20;60.60;;;;;;5011706;28;20018;-76
2021/07/22 08:37:35;;;;;;;16.67;14.93;;;35.90;60.60;;;;;;5009408;28;20069;-76
2021/07/22 08:40:03;;;;;;;20.83;15.00;;;36.00;60.40;;;;;;5006806;28;20578;-76
2021/07/22 08:42:35;;;;;;;21.63;14.65;;;36.00;60.30;;;;;;5011101;28;20567;-76
2021/07/22 08:45:01;;;;;;;22.13;15.70;;;36.50;59.00;;;;;;5011468;28;20381;-77
2021/07/22 08:47:27;;;;;;;18.13;13.77;;;36.60;58.70;;;;;;4999383;28;20481;-76
2021/07/22 08:49:53;;;;;;;19.33;15.32;;;36.80;58.30;;;;;;4992560;28;20060;-77
2021/07/22 08:52:18;;;;;;;17.15;15.38;;;37.40;57.80;;;;;;5008943;28;20037;-77
2021/07/22 08:54:44;;;;;;;15.75;14.10;;;37.20;57.70;;;;;;5002905;28;20116;-77
2021/07/22 08:57:11;;;;;;;21.48;14.85;;;37.20;57.90;;;;;;5001163;28;20057;-76
2021/07/22 08:59:37;;;;;;;21.00;14.50;;;37.20;57.80;;;;;;4994527;28;20019;-76
2021/07/22 09:02:04;;;;;;;18.63;14.80;;;37.00;58.40;;;;;;5008392;28;20113;-76
2021/07/22 09:04:30;;;;;;;16.55;14.85;;;36.90;57.70;;;;;;5009180;28;20134;-76
2021/07/22 09:06:56;;;;;;;15.75;14.02;;;36.80;57.80;;;;;;5010946;28;20030;-76
2021/07/22 09:09:23;;;;;;;25.45;15.45;;;37.20;57.50;;;;;;5002738;28;20026;-76
2021/07/22 09:11:53;;;;;;;17.15;14.73;;;37.00;57.50;;;;;;5011620;28;20030;-76
2021/07/22 09:14:19;;;;;;;39.50;15.00;;;37.80;56.30;;;;;;4995660;28;20027;-76
2021/07/22 09:16:45;;;;;;;17.50;14.18;;;38.00;56.10;;;;;;4991912;28;20409;-76
2021/07/22 09:19:36;;;;;;;16.65;14.10;;;37.80;56.90;;;;;;5002790;28;20404;-76
2021/07/22 09:22:09;;;;;;;17.00;14.90;;;37.90;56.20;;;;;;5010670;28;20038;-76
2021/07/22 09:24:49;;;;;;;17.45;14.35;;;38.20;55.60;;;;;;5005826;28;20035;-76
2021/07/22 09:27:37;;;;;;;19.60;14.07;;;38.10;54.80;;;;;;4991458;28;20502;-77
2021/07/22 09:30:04;;;;;;;16.95;14.98;;;38.00;54.60;;;;;;5002330;28;20029;-76
2021/07/22 09:32:31;;;;;;;20.08;14.85;;;38.10;54.30;;;;;;5010964;28;20025;-76
2021/07/22 09:35:13;;;;;;;18.30;14.55;;;37.90;55.10;;;;;;5009688;28;20029;-77
2021/07/22 09:37:42;;;;;;;15.38;13.88;;;38.30;54.40;;;;;;5009388;28;20076;-76
2021/07/22 09:40:09;;;;;;;15.63;14.13;;;38.40;53.90;;;;;;5009926;28;20030;-76
2021/07/22 09:42:55;;;;;;;15.73;14.18;;;38.80;54.20;;;;;;5010456;28;20060;-76
2021/07/22 09:45:26;;;;;;;16.58;14.82;;;39.20;53.20;;;;;;5008903;28;20034;-75
2021/07/22 09:47:56;;;;;;;20.23;14.50;;;39.10;52.40;;;;;;5008781;28;20073;-76
2021/07/22 09:50:25;;;;;;;15.63;14.13;;;38.90;52.40;;;;;;5002548;28;20026;-77
2021/07/22 09:53:11;;;;;;;16.63;14.48;;;38.70;52.20;;;;;;5024425;28;20029;-76
2021/07/22 09:55:42;;;;;;;16.83;14.57;;;38.30;53.10;;;;;;5011311;28;20034;-76
2021/07/22 09:58:09;;;;;;;17.33;14.43;;;38.30;52.70;;;;;;5009465;28;20034;-76
2021/07/22 10:00:40;;;;;;;17.80;14.30;;;38.50;53.70;;;;;;5007929;28;20040;-76
2021/07/22 10:03:19;;;;;;;15.77;14.38;;;38.10;53.20;;;;;;5009383;28;20042;-75
2021/07/22 10:06:11;;;;;;;22.70;14.70;;;38.30;52.50;;;;;;5012183;28;20742;-76
2021/07/22 10:08:39;;;;;;;16.08;14.40;;;38.20;53.50;;;;;;5000158;28;20046;-75
2021/07/22 10:11:05;;;;;;;15.27;13.68;;;38.30;52.80;;;;;;5000137;28;20516;-75
2021/07/22 10:13:38;;;;;;;15.82;14.32;;;38.70;52.80;;;;;;4992638;28;20484;-75
2021/07/22 10:16:11;;;;;;;18.58;14.95;;;38.80;51.60;;;;;;5008611;28;20492;-75
2021/07/22 10:18:43;;;;;;;17.63;14.50;;;38.80;52.20;;;;;;5005832;28;20104;-75
2021/07/22 10:21:08;;;;;;;19.38;15.68;;;38.70;52.70;;;;;;4990403;28;20046;-75
2021/07/22 10:23:34;;;;;;;17.98;14.70;;;38.80;52.80;;;;;;5006882;28;20026;-75
2021/07/22 10:26:00;;;;;;;19.20;13.98;;;38.70;52.20;;;;;;5010799;28;20493;-76
2021/07/22 10:28:27;;;;;;;15.73;14.02;;;38.80;52.10;;;;;;4999309;28;20026;-76
2021/07/22 10:30:55;;;;;;;16.35;14.57;;;38.60;52.70;;;;;;5009569;28;20037;-76
2021/07/22 10:33:22;;;;;;;17.33;14.38;;;38.30;52.40;;;;;;5005665;28;20026;-75
2021/07/22 10:35:53;;;;;;;18.92;14.32;;;38.20;51.70;;;;;;5005748;28;20044;-76
2021/07/22 10:38:23;;;;;;;22.98;14.77;;;38.40;52.00;;;;;;4991212;28;20452;-76
2021/07/22 10:40:59;;;;;;;22.90;14.05;;;38.40;51.60;;;;;;4989207;28;20104;-76
2021/07/22 10:43:42;;;;;;;16.05;14.38;;;38.40;51.20;;;;;;5005731;28;20057;-75
2021/07/22 10:46:08;;;;;;;19.00;14.07;;;38.30;52.00;;;;;;5004501;28;20026;-75
2021/07/22 10:48:34;;;;;;;15.50;13.90;;;38.20;51.70;;;;;;5007170;28;20033;-75
2021/07/22 10:51:04;;;;;;;16.70;14.27;;;37.90;51.90;;;;;;5007454;28;20077;-76
2021/07/22 10:53:37;;;;;;;17.23;14.57;;;38.50;51.20;;;;;;5006268;28;20429;-75
2021/07/22 10:56:04;;;;;;;23.27;16.05;;;39.00;51.60;;;;;;5009241;28;20119;-76
2021/07/22 10:58:29;;;;;;;19.15;16.25;;;38.90;50.00;;;;;;5006117;28;20104;-75
2021/07/22 11:00:56;;;;;;;19.20;14.65;;;38.60;50.50;;;;;;5008692;28;20057;-76
2021/07/22 11:03:34;;;;;;;18.52;15.00;;;38.40;50.00;;;;;;4986746;28;20026;-75
2021/07/22 11:06:07;;;;;;;18.50;14.95;;;38.40;51.10;;;;;;5007322;28;20113;-75
2021/07/22 11:08:36;;;;;;;17.70;15.38;;;38.70;49.40;;;;;;4996673;28;20390;-75
2021/07/22 11:11:07;;;;;;;18.02;15.30;;;39.10;50.30;;;;;;4989032;28;20106;-75
2021/07/22 11:16:03;;;;;;;17.27;15.48;;;39.20;48.50;;;;;;4997063;28;20042;-76
2021/07/22 11:18:44;;;;;;;18.30;16.38;;;39.30;47.80;;;;;;4989545;28;20023;-76
2021/07/22 11:21:11;;;;;;;20.10;14.90;;;39.30;48.70;;;;;;4999933;28;20688;-76
2021/07/22 11:23:37;;;;;;;17.30;15.50;;;39.10;48.70;;;;;;5023866;28;20100;-76
2021/07/22 11:26:03;;;;;;;17.55;15.80;;;38.90;49.20;;;;;;5008883;28;20097;-76
2021/07/22 11:28:29;;;;;;;19.33;15.50;;;39.00;49.90;;;;;;5008989;28;20025;-76
2021/07/22 11:31:21;;;;;;;17.65;15.48;;;39.10;49.10;;;;;;4990445;28;20038;-76
2021/07/22 11:33:47;;;;;;;;;;;39.20;49.50;;;;;;4996618;28;20034;-75
2021/07/22 11:36:16;;;;;;;18.85;15.95;;;39.40;49.20;;;;;;5006630;28;19913;-76
2021/07/22 11:38:51;;;;;;;18.30;15.95;;;39.60;47.50;;;;;;5010256;28;20030;-76
2021/07/22 11:41:20;;;;;;;20.80;15.25;;;39.50;48.60;;;;;;5008179;28;20029;-76
2021/07/22 11:43:54;;;;;;;19.63;16.30;;;39.10;48.20;;;;;;4999654;28;20055;-75
2021/07/22 11:46:48;;;;;;;19.92;16.60;;;39.00;49.20;;;;;;5008078;28;20049;-76
2021/07/22 11:49:15;;;;;;;18.40;15.43;;;38.80;49.00;;;;;;5011657;28;20058;-76
2021/07/22 11:51:46;;;;;;;20.50;15.98;;;38.70;49.10;;;;;;5011998;28;20109;-76
2021/07/22 11:54:12;;;;;;;21.53;16.33;;;38.60;49.20;;;;;;5012243;28;20107;-75
2021/07/22 11:56:38;;;;;;;18.15;15.85;;;38.50;48.90;;;;;;5013218;28;20032;-76
2021/07/22 11:59:08;;;;;;;17.83;15.80;;;38.60;49.30;;;;;;5003735;28;20022;-76
2021/07/22 12:01:45;;;;;;;18.75;16.08;;;38.90;49.00;;;;;;4992781;28;20124;-76
2021/07/22 12:04:10;;;;;;;19.10;16.27;;;38.60;48.10;;;;;;5002512;28;20018;-75
2021/07/22 12:06:36;;;;;;;20.90;16.35;;;38.50;48.30;;;;;;5012385;28;20489;-75
2021/07/22 12:09:08;;;;;;;21.25;16.40;;;38.30;48.30;;;;;;5012739;28;20029;-75
2021/07/22 12:11:52;;;;;;;18.23;16.13;;;38.20;49.50;;;;;;5007836;28;20038;-75
2021/07/22 12:14:37;;;;;;;20.08;16.48;;;38.20;49.20;;;;;;5011431;28;20469;-76
2021/07/22 12:17:17;;;;;;;22.98;15.65;;;37.90;48.70;;;;;;5011010;28;20045;-76
2021/07/22 12:19:53;;;;;;;17.75;14.68;;;38.10;49.40;;;;;;4996656;28;20038;-76
2021/07/22 12:22:24;;;;;;;17.83;15.55;;;38.30;50.00;;;;;;4992570;28;20061;-76
2021/07/22 12:24:55;;;;;;;18.90;16.50;;;38.60;49.10;;;;;;5008636;28;20026;-76
2021/07/22 12:27:35;;;;;;;18.15;15.77;;;38.60;48.50;;;;;;5012698;28;20563;-76
2021/07/22 12:30:13;;;;;;;24.52;16.02;;;38.80;47.80;;;;;;4997003;28;20540;-76
2021/07/22 12:32:47;;;;;;;20.42;16.00;;;38.70;48.50;;;;;;4993273;28;20404;-75